Terminal Aerodrome Forecast
Issued by NWS

Home | Current Version | Previous Version | Text Only | Print | Product List | Glossary On
Versions: 1 2 3 4 5 6 7 8 9 10 11 12 13 14 15 16 17
787
FTUS45 KFGZ 271141
TAFPRC
TAF
KPRC 271141Z 2712/2812 18010G20KT P6SM BKN035
     FM271500 20010G20KT P6SM OVC030
     FM271900 22014G24KT 4SM -SHRA OVC020
     FM280000 21012G20KT 2SM RA BR OVC010=

USA.gov is the U.S. government's official web portal to all federal, state and local government web resources and services.